Time;durP1;ratioP1;P1;durP2;ratioP2;P2;SDS_P1;SDS_P2;PMS_P1;PMS_P2;Temp;Humidity;BMP_temperature;BMP_pressure;BME280_temperature;BME280_humidity;BME280_pressure;Samples;Min_cycle;Max_cycle;Signal;HPM_P1;HPM_P2
2023/04/15 00:00:19;;;;;;;5.25;1.85;;;;;;;8.63;58.63;99479.19;10177224;29;20097;-63
2023/04/15 00:05:21;;;;;;;2.85;1.58;;;;;;;8.57;58.80;99477.25;10170880;29;20036;-63
2023/04/15 00:10:22;;;;;;;3.47;2.05;;;;;;;8.45;59.03;99476.88;10168638;29;20029;-63
2023/04/15 00:15:24;;;;;;;5.57;2.00;;;;;;;8.28;59.59;99480.72;10173132;29;20132;-63
2023/04/15 00:20:25;;;;;;;3.47;1.58;;;;;;;8.29;59.40;99477.84;10160053;29;20040;-63
2023/04/15 00:25:27;;;;;;;6.20;2.22;;;;;;;8.17;59.88;99473.94;10170934;29;20051;-64
2023/04/15 00:30:29;;;;;;;3.10;2.05;;;;;;;8.09;60.46;99469.50;10156350;29;20052;-64
2023/04/15 00:35:33;;;;;;;2.78;1.80;;;;;;;8.11;60.26;99462.13;10175360;29;20055;-63
2023/04/15 00:40:35;;;;;;;4.05;1.83;;;;;;;8.19;60.21;99463.06;10173619;29;20040;-63
2023/04/15 00:45:37;;;;;;;3.30;2.00;;;;;;;8.24;59.89;99444.63;10159028;29;20047;-64
2023/04/15 00:50:38;;;;;;;6.28;2.50;;;;;;;8.21;59.55;99442.28;10173545;29;20063;-64
2023/04/15 00:55:39;;;;;;;4.97;2.00;;;;;;;8.20;59.37;99446.00;10175044;29;20040;-64
2023/04/15 01:00:41;;;;;;;4.75;2.35;;;;;;;8.19;59.63;99441.63;10159612;29;20149;-65
2023/04/15 01:05:43;;;;;;;6.22;2.40;;;;;;;8.17;59.62;99446.34;10172614;29;20052;-64
2023/04/15 01:10:44;;;;;;;5.35;1.92;;;;;;;8.11;59.88;99439.88;10175016;29;20088;-64
2023/04/15 01:15:46;;;;;;;3.95;2.58;;;;;;;8.10;60.27;99443.59;10174068;29;20049;-63
2023/04/15 01:20:47;;;;;;;3.30;2.13;;;;;;;8.07;60.60;99449.28;10153176;29;20049;-65
2023/04/15 01:25:50;;;;;;;2.88;1.55;;;;;;;8.01;60.14;99452.69;10144031;29;20052;-64
2023/04/15 01:31:06;;;;;;;7.45;1.70;;;;;;;7.87;60.41;99457.81;10152504;29;20041;-63
2023/04/15 01:36:09;;;;;;;3.40;1.60;;;;;;;7.91;60.34;99455.63;10170033;29;20066;-64
2023/04/15 01:41:12;;;;;;;7.10;1.85;;;;;;;7.89;60.62;99446.94;10157948;29;20113;-63
2023/04/15 01:46:14;;;;;;;3.03;1.35;;;;;;;7.80;60.28;99448.03;10158252;29;20096;-63
2023/04/15 01:51:15;;;;;;;3.80;1.60;;;;;;;7.68;60.63;99445.78;10170155;29;20096;-64
2023/04/15 01:56:17;;;;;;;6.18;2.17;;;;;;;7.65;61.23;99440.78;10153827;29;20056;-63
2023/04/15 02:01:19;;;;;;;5.03;1.75;;;;;;;7.67;61.34;99445.97;10152911;29;20040;-63
2023/04/15 02:06:21;;;;;;;4.57;2.55;;;;;;;7.65;61.60;99443.47;10155666;29;20064;-63
2023/04/15 02:11:22;;;;;;;5.82;2.70;;;;;;;7.67;60.89;99446.78;10167520;29;20335;-63
2023/04/15 02:16:24;;;;;;;9.52;3.70;;;;;;;7.70;61.38;99454.47;10169360;29;20047;-63
2023/04/15 02:21:26;;;;;;;6.20;3.15;;;;;;;7.77;61.78;99445.72;10162942;29;20036;-64
2023/04/15 02:26:30;;;;;;;7.78;3.88;;;;;;;7.81;60.96;99449.69;10171131;29;20037;-63
2023/04/15 02:31:35;;;;;;;6.40;3.35;;;;;;;7.75;61.77;99453.91;10172463;29;20043;-63
2023/04/15 02:36:38;;;;;;;7.38;3.20;;;;;;;7.75;61.42;99448.56;10155205;29;20056;-64
2023/04/15 02:41:39;;;;;;;5.43;2.95;;;;;;;7.75;61.84;99449.41;10171921;29;20100;-64
2023/04/15 02:46:40;;;;;;;6.60;2.08;;;;;;;7.73;61.89;99454.09;10159887;29;20292;-63
2023/04/15 02:51:42;;;;;;;4.88;1.83;;;;;;;7.67;61.29;99448.63;10173235;29;20060;-64
2023/04/15 02:56:45;;;;;;;2.67;1.85;;;;;;;7.62;62.14;99448.34;10164740;29;20044;-67
2023/04/15 03:01:46;;;;;;;6.07;2.15;;;;;;;7.43;62.32;99441.63;10165704;29;20072;-64
2023/04/15 03:06:48;;;;;;;2.75;1.83;;;;;;;7.33;61.88;99452.56;10165338;29;20427;-64
2023/04/15 03:11:52;;;;;;;5.63;2.08;;;;;;;7.37;62.09;99453.88;10167279;29;20081;-64
2023/04/15 03:16:53;;;;;;;6.22;2.25;;;;;;;7.38;62.05;99452.03;10170543;29;20069;-64
2023/04/15 03:21:55;;;;;;;5.93;2.20;;;;;;;7.36;61.87;99449.53;10167518;29;20033;-63
2023/04/15 03:26:56;;;;;;;5.50;3.00;;;;;;;7.32;62.30;99448.22;10163610;29;20078;-63
2023/04/15 03:31:58;;;;;;;4.45;2.88;;;;;;;7.27;62.01;99440.75;10176481;29;20052;-65
2023/04/15 03:36:59;;;;;;;5.88;2.50;;;;;;;7.24;62.16;99448.28;10168792;29;20122;-64
2023/04/15 03:42:00;;;;;;;8.35;3.17;;;;;;;7.17;62.26;99445.50;10169545;29;20072;-64
2023/04/15 03:47:02;;;;;;;6.25;2.88;;;;;;;7.13;63.08;99449.53;10167307;29;20162;-64
2023/04/15 03:52:03;;;;;;;5.13;2.55;;;;;;;7.12;63.14;99445.16;10168049;29;20084;-64
2023/04/15 03:57:05;;;;;;;6.68;3.00;;;;;;;7.06;63.08;99437.84;10167275;29;20049;-64
2023/04/15 04:02:06;;;;;;;4.22;2.53;;;;;;;7.11;62.98;99436.31;10166013;29;20081;-63
2023/04/15 04:07:13;;;;;;;6.03;2.75;;;;;;;7.07;63.04;99428.81;10167281;29;20047;-63
2023/04/15 04:12:14;;;;;;;5.43;2.90;;;;;;;7.08;63.12;99431.31;10169551;29;20047;-63
2023/04/15 04:17:16;;;;;;;3.15;2.40;;;;;;;7.06;62.85;99435.19;10173184;29;20159;-63
2023/04/15 04:22:22;;;;;;;6.40;3.03;;;;;;;7.08;62.92;99441.19;10171828;29;20037;-64
2023/04/15 04:27:24;;;;;;;7.05;3.35;;;;;;;7.08;63.61;99444.69;10170837;29;20045;-64
2023/04/15 04:32:25;;;;;;;36.90;16.13;;;;;;;6.99;63.72;99445.75;10155201;29;20037;-62
2023/04/15 04:37:26;;;;;;;12.77;5.80;;;;;;;7.15;62.54;99444.81;10172347;29;20043;-62
2023/04/15 04:42:28;;;;;;;15.35;7.30;;;;;;;7.17;63.23;99444.63;10168562;29;20057;-62
2023/04/15 04:47:29;;;;;;;11.13;4.75;;;;;;;7.14;63.15;99443.16;10175504;29;20040;-62
2023/04/15 04:52:31;;;;;;;6.85;4.32;;;;;;;7.14;62.92;99443.16;10172294;29;20040;-62
2023/04/15 04:57:33;;;;;;;7.07;4.53;;;;;;;7.27;63.60;99442.59;10168447;29;20331;-62
2023/04/15 05:02:34;;;;;;;7.97;4.30;;;;;;;7.37;63.06;99445.03;10172719;29;20040;-62
2023/04/15 05:07:37;;;;;;;9.57;4.47;;;;;;;7.44;63.17;99452.13;10172338;29;20119;-62
2023/04/15 05:12:38;;;;;;;7.68;3.50;;;;;;;7.44;63.26;99452.13;10175127;29;20033;-63
2023/04/15 05:17:40;;;;;;;10.18;4.93;;;;;;;7.48;62.83;99458.78;10171196;29;20052;-63
2023/04/15 05:22:41;;;;;;;9.95;4.78;;;;;;;7.60;63.59;99461.88;10172964;29;20060;-62
2023/04/15 05:27:42;;;;;;;7.80;2.90;;;;;;;7.52;63.17;99468.16;10170077;29;20029;-62
2023/04/15 05:32:44;;;;;;;8.73;3.40;;;;;;;7.66;63.14;99466.53;10151659;29;20044;-62
2023/04/15 05:37:46;;;;;;;4.75;3.83;;;;;;;7.81;63.29;99473.78;10172438;29;20056;-62
2023/04/15 05:42:47;;;;;;;9.00;3.70;;;;;;;7.94;63.23;99479.34;10170920;29;20041;-62
2023/04/15 05:47:49;;;;;;;8.25;3.40;;;;;;;8.08;62.92;99475.88;10168245;29;20111;-62
2023/04/15 05:52:51;;;;;;;4.82;3.22;;;;;;;8.29;63.51;99487.72;10169854;29;20049;-62
2023/04/15 05:57:52;;;;;;;5.72;3.45;;;;;;;8.49;63.12;99483.53;10172233;29;20040;-62
2023/04/15 06:02:55;;;;;;;8.70;3.63;;;;;;;8.70;63.15;99482.78;10162869;29;20044;-62
2023/04/15 06:07:56;;;;;;;6.03;4.00;;;;;;;8.90;62.75;99488.41;10168980;29;20064;-62
2023/04/15 06:12:58;;;;;;;3.72;2.88;;;;;;;8.99;62.70;99480.28;10166393;29;20048;-62
2023/04/15 06:17:59;;;;;;;8.63;3.15;;;;;;;9.21;62.42;99494.56;10162110;29;20342;-63
2023/04/15 06:23:00;;;;;;;7.57;2.97;;;;;;;9.47;62.37;99491.34;10171554;29;20132;-62
2023/04/15 07:52:17;;;;;;;7.40;5.38;;;;;;;12.97;59.56;99514.66;10466653;23;20623;-61
2023/04/15 07:57:19;;;;;;;7.57;5.40;;;;;;;13.22;59.04;99516.66;10285340;28;20113;-61
2023/04/15 08:02:21;;;;;;;7.55;4.85;;;;;;;13.14;58.81;99508.81;10286673;28;20062;-61
2023/04/15 08:07:23;;;;;;;7.55;4.53;;;;;;;13.22;58.52;99512.09;10267270;28;20047;-61
2023/04/15 08:12:24;;;;;;;8.77;4.28;;;;;;;13.53;57.58;99518.63;10282545;28;20078;-61
2023/04/15 08:17:26;;;;;;;4.82;3.17;;;;;;;13.74;56.77;99516.63;10284162;28;20077;-62
2023/04/15 08:22:27;;;;;;;10.73;4.38;;;;;;;13.82;56.19;99521.78;10284238;28;20066;-61
2023/04/15 08:27:29;;;;;;;6.13;3.90;;;;;;;13.99;55.59;99520.22;10282010;28;20121;-62
2023/04/15 08:32:30;;;;;;;5.05;3.80;;;;;;;14.11;55.09;99509.53;10280916;28;20060;-61
2023/04/15 08:37:32;;;;;;;5.57;3.75;;;;;;;14.27;54.85;99514.38;10264033;28;20058;-61
2023/04/15 08:42:40;;;;;;;5.63;3.70;;;;;;;14.44;54.16;99506.53;10279909;28;20137;-61
2023/04/15 08:47:46;;;;;;;4.70;3.15;;;;;;;14.52;53.71;99507.31;10279389;28;20051;-63
2023/04/15 08:52:47;;;;;;;2.80;2.10;;;;;;;14.66;52.94;99506.16;10280123;28;20042;-62
2023/04/15 08:57:50;;;;;;;2.95;1.70;;;;;;;14.86;51.43;99497.81;10284105;28;20110;-62
2023/04/15 09:02:51;;;;;;;7.03;2.72;;;;;;;14.99;51.18;99510.41;10277100;28;20051;-62
2023/04/15 09:07:53;;;;;;;3.85;2.20;;;;;;;15.13;50.91;99513.78;10279065;28;20082;-63
2023/04/15 09:12:55;;;;;;;5.40;2.33;;;;;;;15.26;50.53;99517.16;10281110;28;20061;-62
2023/04/15 09:17:56;;;;;;;4.45;2.10;;;;;;;15.36;49.94;99515.75;10286650;28;20105;-61
2023/04/15 09:22:58;;;;;;;4.00;1.98;;;;;;;15.45;49.72;99523.34;10296311;28;20042;-62
2023/04/15 09:28:00;;;;;;;2.72;2.10;;;;;;;15.45;49.54;99527.94;10372894;23;20059;-57
2023/04/15 09:33:09;;;;;;;2.78;1.60;;;;;;;15.45;49.20;99530.66;10279473;28;20046;-58
2023/04/15 09:38:11;;;;;;;3.53;1.30;;;;;;;15.27;49.36;99543.16;10280961;28;20054;-58
2023/04/15 09:43:13;;;;;;;2.67;1.33;;;;;;;15.15;49.24;99541.44;10284769;28;20082;-59
2023/04/15 09:48:14;;;;;;;4.68;1.42;;;;;;;15.01;49.00;99548.88;10281352;28;20081;-57
2023/04/15 09:53:21;;;;;;;4.82;1.50;;;;;;;14.87;48.56;99550.91;10281274;28;20066;-57
2023/04/15 09:58:27;;;;;;;3.37;1.40;;;;;;;14.74;49.03;99564.56;10280603;28;20142;-58
2023/04/15 10:03:35;;;;;;;5.73;2.00;;;;;;;14.73;49.03;99576.41;10280379;28;20055;-57
2023/04/15 10:08:37;;;;;;;3.30;1.80;;;;;;;14.61;49.09;99569.06;10279346;28;20068;-57
2023/04/15 10:13:40;;;;;;;3.20;1.45;;;;;;;14.56;49.20;99573.44;10278816;28;20130;-57
2023/04/15 10:18:44;;;;;;;2.55;1.58;;;;;;;14.54;49.17;99581.75;10277316;28;20082;-57
2023/04/15 10:23:46;;;;;;;2.63;1.65;;;;;;;14.68;48.98;99590.63;10279702;28;20062;-58
2023/04/15 10:28:48;;;;;;;1.88;1.50;;;;;;;14.58;49.16;99603.81;10277455;28;20497;-58
2023/04/15 10:33:51;;;;;;;2.30;1.20;;;;;;;14.65;48.98;99596.47;10290038;28;20106;-63
2023/04/15 10:38:52;;;;;;;1.95;1.30;;;;;;;14.75;49.12;99606.78;10314735;28;20061;-63
2023/04/15 10:44:04;;;;;;;2.17;1.35;;;;;;;14.88;48.82;99602.06;10311997;28;20050;-65
2023/04/15 10:49:07;;;;;;;2.13;1.13;;;;;;;14.96;48.39;99614.50;10302236;28;20059;-63
2023/04/15 10:54:29;;;;;;;3.13;1.30;;;;;;;14.93;48.46;99616.81;10300574;28;20093;-66
2023/04/15 10:59:51;;;;;;;2.28;0.98;;;;;;;14.90;48.91;99611.88;10293660;28;20055;-66
2023/04/15 11:04:56;;;;;;;3.03;1.05;;;;;;;14.92;49.07;99618.69;10288835;28;20045;-68
2023/04/15 11:09:58;;;;;;;2.95;1.33;;;;;;;15.11;48.90;99616.84;10287777;28;20615;-65
2023/04/15 11:14:59;;;;;;;1.95;1.00;;;;;;;15.13;49.70;99627.47;10306719;28;20075;-65
2023/04/15 11:20:03;;;;;;;2.35;1.10;;;;;;;15.06;50.76;99628.34;10313916;28;20050;-63
2023/04/15 11:25:05;;;;;;;1.55;1.00;;;;;;;14.95;51.77;99634.50;10323829;28;20059;-65
2023/04/15 11:30:19;;;;;;;1.17;1.08;;;;;;;14.79;52.75;99637.75;10333359;28;20085;-64
2023/04/15 11:35:21;;;;;;;1.67;1.50;;;;;;;14.58;53.60;99656.03;10314700;28;20706;-66
2023/04/15 11:40:27;;;;;;;1.45;1.35;;;;;;;14.37;54.46;99657.16;10323658;28;20046;-68
2023/04/15 11:45:29;;;;;;;1.20;1.10;;;;;;;14.15;55.02;99655.88;10310342;28;20110;-64
2023/04/15 11:50:30;;;;;;;1.98;1.42;;;;;;;13.99;55.66;99665.31;10307889;28;20134;-61
2023/04/15 11:55:45;;;;;;;2.05;1.40;;;;;;;13.92;55.97;99676.16;10291795;28;20050;-65
2023/04/15 12:00:49;;;;;;;3.03;1.38;;;;;;;13.79;57.14;99685.13;10297213;28;20077;-62
2023/04/15 12:06:20;;;;;;;4.00;1.60;;;;;;;13.72;57.59;99692.41;10316861;28;20069;-62
2023/04/15 12:11:39;;;;;;;3.28;1.60;;;;;;;13.66;57.93;99695.97;10313362;28;20046;-62
2023/04/15 12:16:44;;;;;;;2.55;1.65;;;;;;;13.71;58.59;99698.06;10316755;28;20114;-61
2023/04/15 12:21:51;;;;;;;2.03;1.52;;;;;;;13.79;58.72;99697.81;10324266;28;20437;-61
2023/04/15 12:26:56;;;;;;;1.92;1.63;;;;;;;13.61;59.59;99706.59;10326830;28;20452;-64
2023/04/15 12:32:09;;;;;;;2.92;1.52;;;;;;;13.54;60.15;99724.66;10310687;28;20101;-63
2023/04/15 12:37:14;;;;;;;3.03;2.00;;;;;;;13.39;60.92;99724.88;10303386;28;20058;-62
2023/04/15 12:42:17;;;;;;;2.28;1.60;;;;;;;12.92;62.29;99735.69;10265082;28;20059;-60
2023/04/15 12:47:18;;;;;;;0.98;0.57;;;;;;;12.35;63.18;99745.13;10291067;28;20054;-60
2023/04/15 12:52:20;;;;;;;1.35;0.77;;;;;;;11.92;63.32;99750.75;10267479;28;20054;-61
2023/04/15 12:57:21;;;;;;;0.98;0.63;;;;;;;11.84;63.43;99757.91;10292069;28;20069;-62
2023/04/15 13:02:24;;;;;;;3.25;0.57;;;;;;;11.67;63.74;99759.25;10304779;28;20055;-63
2023/04/15 13:07:25;;;;;;;1.05;0.75;;;;;;;11.52;63.99;99757.53;10296501;28;20105;-62
2023/04/15 13:12:27;;;;;;;0.47;0.38;;;;;;;11.46;64.70;99766.38;10290970;28;20054;-60
2023/04/15 13:17:28;;;;;;;0.38;0.30;;;;;;;11.47;65.03;99764.50;10286082;28;20051;-61
2023/04/15 13:22:30;;;;;;;0.82;0.30;;;;;;;11.32;65.23;99768.16;10282783;28;20101;-61
2023/04/15 13:27:32;;;;;;;0.20;0.20;;;;;;;11.34;65.36;99765.25;10282028;28;20082;-61
2023/04/15 13:32:33;;;;;;;1.55;0.13;;;;;;;11.40;64.84;99758.28;10287422;28;20051;-61
2023/04/15 13:37:35;;;;;;;1.55;0.30;;;;;;;11.31;65.32;99766.50;10271873;28;20445;-60
2023/04/15 13:42:36;;;;;;;0.45;0.30;;;;;;;11.35;65.35;99772.28;10294116;28;20051;-61
2023/04/15 13:47:38;;;;;;;0.30;0.30;;;;;;;11.40;65.19;99767.16;10297037;28;20059;-61
2023/04/15 13:52:39;;;;;;;0.40;0.40;;;;;;;11.36;65.16;99783.91;10303195;28;20054;-60
2023/04/15 13:57:41;;;;;;;0.47;0.40;;;;;;;11.24;66.06;99792.50;10300151;28;20621;-61
2023/04/15 14:02:42;;;;;;;0.70;0.40;;;;;;;11.35;65.86;99782.22;10305837;28;20210;-61
2023/04/15 14:07:43;;;;;;;2.05;0.70;;;;;;;11.40;65.89;99790.56;10306037;28;20063;-59
2023/04/15 14:12:45;;;;;;;0.90;0.57;;;;;;;11.45;65.98;99799.72;10282318;28;20626;-61
2023/04/15 14:17:47;;;;;;;0.75;0.50;;;;;;;11.40;66.48;99802.16;10283910;28;20063;-62
2023/04/15 14:22:49;;;;;;;0.77;0.55;;;;;;;11.42;67.38;99810.03;10288702;28;20061;-62
2023/04/15 14:27:50;;;;;;;0.60;0.50;;;;;;;11.21;67.83;99818.97;10276866;28;20102;-63
2023/04/15 14:32:52;;;;;;;0.60;0.40;;;;;;;11.19;68.39;99815.63;10293577;28;20050;-61
2023/04/15 14:37:54;;;;;;;0.60;0.40;;;;;;;11.12;68.67;99823.66;10314704;28;20062;-62
2023/04/15 14:42:55;;;;;;;2.42;0.40;;;;;;;10.91;69.26;99840.59;10314828;28;20077;-61
2023/04/15 14:47:58;;;;;;;0.52;0.30;;;;;;;10.87;69.57;99847.38;10293064;28;20375;-61
2023/04/15 14:52:59;;;;;;;0.93;0.40;;;;;;;10.94;69.80;99853.69;10278063;28;20054;-60
2023/04/15 14:58:01;;;;;;;1.58;0.30;;;;;;;10.84;70.05;99856.69;10276240;28;20070;-60
2023/04/15 15:03:03;;;;;;;0.38;0.30;;;;;;;10.85;69.65;99847.56;10277427;28;20078;-62
2023/04/15 15:08:06;;;;;;;0.70;0.30;;;;;;;10.77;70.46;99866.50;10275353;28;20059;-61
2023/04/15 15:13:08;;;;;;;0.95;0.60;;;;;;;10.77;70.02;99871.06;10269295;28;20078;-62
2023/04/15 15:18:10;;;;;;;1.35;0.55;;;;;;;10.80;70.34;99876.91;10272391;28;20138;-61
2023/04/15 15:23:12;;;;;;;2.63;0.47;;;;;;;10.77;70.48;99877.25;10271670;28;20050;-63
2023/04/15 15:28:13;;;;;;;0.70;0.40;;;;;;;10.80;70.29;99884.13;10276990;28;20146;-61
2023/04/15 15:33:15;;;;;;;0.47;0.30;;;;;;;10.81;70.39;99875.88;10277945;28;20051;-63
2023/04/15 15:38:16;;;;;;;0.60;0.20;;;;;;;10.91;70.38;99889.00;10269706;28;20097;-62
2023/04/15 15:43:17;;;;;;;1.88;0.30;;;;;;;10.89;70.31;99891.88;10269121;28;20131;-61
2023/04/15 15:48:19;;;;;;;0.73;0.35;;;;;;;10.89;70.69;99896.44;10269689;28;20437;-62
2023/04/15 15:53:23;;;;;;;0.45;0.20;;;;;;;10.90;70.83;99898.13;10275345;28;20051;-62
2023/04/15 15:58:24;;;;;;;1.95;0.88;;;;;;;10.81;70.86;99901.94;10273223;28;20117;-61
2023/04/15 16:03:25;;;;;;;0.20;0.20;;;;;;;10.75;71.63;99910.75;10270686;28;20075;-62
2023/04/15 16:08:27;;;;;;;0.60;0.20;;;;;;;10.72;71.49;99920.00;10277740;28;20243;-61
2023/04/15 16:13:28;;;;;;;1.00;0.30;;;;;;;10.70;71.87;99919.34;10273691;28;20078;-62
2023/04/15 16:18:30;;;;;;;0.30;0.20;;;;;;;10.70;71.72;99927.41;10291195;28;20054;-61
2023/04/15 16:23:35;;;;;;;1.23;0.38;;;;;;;10.78;71.57;99930.03;10285948;28;20194;-59
2023/04/15 16:28:37;;;;;;;1.05;0.50;;;;;;;10.74;72.09;99936.78;10284692;28;20055;-61
2023/04/15 16:33:38;;;;;;;0.70;0.40;;;;;;;10.72;72.45;99941.50;10287346;28;20327;-59
2023/04/15 16:38:39;;;;;;;0.50;0.30;;;;;;;10.66;72.44;99951.19;10290254;28;20405;-60
2023/04/15 16:43:41;;;;;;;1.15;0.50;;;;;;;10.83;72.03;99959.03;10290204;28;20054;-55
2023/04/15 16:48:42;;;;;;;1.00;0.40;;;;;;;10.78;72.21;99964.97;10279328;28;20087;-56
2023/04/15 16:53:43;;;;;;;1.05;0.40;;;;;;;10.81;72.69;99961.06;10289152;28;20086;-55
2023/04/15 16:58:45;;;;;;;0.57;0.40;;;;;;;10.81;72.61;99969.13;10287474;28;20050;-56
2023/04/15 17:03:46;;;;;;;2.40;0.60;;;;;;;10.88;72.43;99972.72;10282116;28;20058;-57
2023/04/15 17:08:48;;;;;;;3.15;0.57;;;;;;;10.96;72.42;99978.03;10284399;28;20102;-56
2023/04/15 17:13:49;;;;;;;0.70;0.40;;;;;;;11.03;72.05;99978.09;10275962;28;20109;-58
2023/04/15 17:18:51;;;;;;;0.77;0.50;;;;;;;11.09;72.18;99990.78;10263099;28;20078;-57
2023/04/15 17:23:52;;;;;;;2.15;0.50;;;;;;;11.05;72.43;99992.19;10279830;28;20089;-56
2023/04/15 17:28:54;;;;;;;0.75;0.40;;;;;;;11.04;72.44;99993.22;10277667;28;20047;-56
2023/04/15 17:33:56;;;;;;;1.35;0.40;;;;;;;11.16;72.11;100004.31;10283526;28;20055;-57
2023/04/15 17:39:10;;;;;;;0.50;0.30;;;;;;;11.20;72.04;100011.84;10282384;28;20051;-56
2023/04/15 17:44:12;;;;;;;0.93;0.35;;;;;;;11.21;71.96;100026.13;10278657;28;20136;-56
2023/04/15 17:49:13;;;;;;;0.63;0.30;;;;;;;11.23;71.52;100032.97;10280286;28;20078;-59
2023/04/15 17:54:15;;;;;;;1.10;0.50;;;;;;;11.21;71.63;100044.94;10273687;28;20105;-58
2023/04/15 17:59:16;;;;;;;1.55;0.63;;;;;;;11.22;71.67;100052.00;10275514;28;20046;-57
2023/04/15 18:04:18;;;;;;;1.02;0.40;;;;;;;11.23;71.86;100051.81;10273756;28;20123;-57
2023/04/15 18:09:19;;;;;;;2.22;0.50;;;;;;;11.22;71.39;100058.22;10270928;28;20467;-59
2023/04/15 18:14:21;;;;;;;0.57;0.40;;;;;;;11.19;71.92;100069.34;10275022;28;20130;-58
2023/04/15 18:19:35;;;;;;;2.83;0.50;;;;;;;11.27;71.29;100080.00;10272929;28;20050;-58
2023/04/15 18:24:36;;;;;;;1.13;0.22;;;;;;;11.20;71.48;100081.78;10272466;28;20074;-58
2023/04/15 18:29:38;;;;;;;0.60;0.30;;;;;;;11.20;71.85;100092.56;10274407;28;20051;-59
2023/04/15 18:34:41;;;;;;;0.82;0.40;;;;;;;11.24;71.31;100093.84;10274434;28;20486;-58
2023/04/15 18:39:43;;;;;;;8.35;0.50;;;;;;;11.25;71.64;100094.66;10276467;28;20102;-58
2023/04/15 18:44:44;;;;;;;0.50;0.40;;;;;;;11.24;71.47;100104.59;10274343;28;20078;-58
2023/04/15 18:49:45;;;;;;;0.82;0.70;;;;;;;11.22;71.75;100106.66;10274244;28;20050;-59
2023/04/15 18:54:47;;;;;;;2.33;0.30;;;;;;;11.28;71.51;100113.16;10272615;28;20074;-59
2023/04/15 18:59:48;;;;;;;0.70;0.47;;;;;;;11.36;71.10;100109.53;10263659;28;20078;-59
2023/04/15 19:04:50;;;;;;;1.10;0.55;;;;;;;11.35;71.12;100126.69;10272203;28;20121;-58
2023/04/15 19:09:52;;;;;;;0.65;0.40;;;;;;;11.30;71.09;100138.00;10274495;28;20097;-58
2023/04/15 19:14:53;;;;;;;0.40;0.30;;;;;;;11.30;71.32;100138.00;10270075;28;20082;-59
2023/04/15 19:19:55;;;;;;;0.80;0.40;;;;;;;11.35;70.83;100140.97;10277322;28;20476;-59
2023/04/15 19:24:56;;;;;;;2.10;0.40;;;;;;;11.36;70.93;100136.44;10274261;28;20082;-59
2023/04/15 19:29:58;;;;;;;0.75;0.40;;;;;;;11.32;70.85;100142.19;10273207;28;20458;-59
2023/04/15 19:34:59;;;;;;;0.75;0.30;;;;;;;11.32;70.57;100144.03;10274343;28;20082;-59
2023/04/15 19:40:01;;;;;;;2.65;0.50;;;;;;;11.30;70.91;100151.47;10274861;28;20139;-59
2023/04/15 19:45:02;;;;;;;1.33;0.40;;;;;;;11.31;70.86;100166.56;10277492;28;20062;-59
2023/04/15 19:50:06;;;;;;;0.50;0.40;;;;;;;11.31;70.44;100167.44;10281978;28;20058;-59
2023/04/15 19:55:07;;;;;;;0.80;0.45;;;;;;;11.38;70.17;100172.91;10286675;28;20089;-59
2023/04/15 20:00:09;;;;;;;1.50;0.50;;;;;;;11.34;70.71;100165.41;10283142;28;20059;-60
2023/04/15 20:05:11;;;;;;;0.98;0.40;;;;;;;11.32;70.43;100168.25;10287745;28;20376;-61
2023/04/15 20:10:13;;;;;;;0.93;0.68;;;;;;;11.35;70.43;100167.88;10286408;28;20121;-61
2023/04/15 20:15:14;;;;;;;0.93;0.60;;;;;;;11.35;70.21;100167.03;10284167;28;20098;-59
2023/04/15 20:20:16;;;;;;;0.80;0.80;;;;;;;11.44;69.96;100187.47;10290507;28;20042;-60
2023/04/15 20:25:17;;;;;;;0.75;0.40;;;;;;;11.46;69.93;100185.44;10294026;28;20043;-61
2023/04/15 20:30:19;;;;;;;0.95;0.52;;;;;;;11.45;69.72;100179.22;10288893;28;20131;-61
2023/04/15 20:35:20;;;;;;;0.90;0.50;;;;;;;11.44;69.59;100182.09;10289027;28;20117;-60
2023/04/15 20:40:22;;;;;;;2.67;0.50;;;;;;;11.39;69.61;100181.81;10291099;28;20047;-61
2023/04/15 20:45:23;;;;;;;1.30;0.60;;;;;;;11.37;70.24;100183.84;10287849;28;20144;-61
2023/04/15 20:50:25;;;;;;;0.80;0.50;;;;;;;11.38;69.62;100182.84;10288657;28;20058;-60
2023/04/15 20:55:26;;;;;;;1.17;0.60;;;;;;;11.39;69.42;100184.50;10285923;28;20074;-62
2023/04/15 21:00:32;;;;;;;1.20;0.60;;;;;;;11.41;69.69;100185.13;10268132;28;20043;-59
2023/04/15 21:05:33;;;;;;;1.38;0.82;;;;;;;11.37;69.79;100190.06;10277031;28;20058;-61
2023/04/15 21:10:35;;;;;;;0.90;0.55;;;;;;;11.25;69.49;100203.13;10273994;28;20047;-60
2023/04/15 21:15:36;;;;;;;1.90;0.75;;;;;;;11.28;69.66;100196.56;10289476;28;20059;-60
2023/04/15 21:20:38;;;;;;;2.00;0.80;;;;;;;11.29;69.24;100220.59;10284915;28;20054;-61
2023/04/15 21:25:39;;;;;;;2.40;0.90;;;;;;;11.24;69.17;100224.88;10285894;28;20502;-61
2023/04/15 21:30:41;;;;;;;2.08;0.73;;;;;;;11.20;69.54;100220.88;10287653;28;20382;-59
2023/04/15 21:35:42;;;;;;;1.40;0.55;;;;;;;11.17;69.29;100240.06;10283441;28;20047;-60
2023/04/15 21:40:43;;;;;;;1.48;0.90;;;;;;;11.12;69.07;100251.38;10276741;28;20164;-61
2023/04/15 21:45:45;;;;;;;1.25;0.70;;;;;;;11.14;69.36;100259.22;10275207;28;20055;-60
2023/04/15 21:51:07;;;;;;;1.52;0.90;;;;;;;11.14;69.11;100273.53;10275692;28;20066;-60
2023/04/15 21:56:08;;;;;;;1.73;0.98;;;;;;;11.13;69.26;100279.09;10274571;28;20042;-61
2023/04/15 22:01:10;;;;;;;1.33;0.77;;;;;;;11.05;69.18;100288.91;10268928;28;20666;-61
2023/04/15 22:06:12;;;;;;;2.47;1.00;;;;;;;11.10;69.27;100283.00;10279216;28;20046;-59
2023/04/15 22:11:25;;;;;;;1.95;0.90;;;;;;;11.06;69.55;100287.06;10279635;28;20891;-61
2023/04/15 22:16:26;;;;;;;2.00;1.25;;;;;;;11.10;69.31;100285.69;10281551;28;20047;-60
2023/04/15 22:21:28;;;;;;;1.50;0.60;;;;;;;11.22;69.08;100276.16;10247385;28;20576;-59
2023/04/15 22:26:29;;;;;;;1.55;0.95;;;;;;;11.23;69.29;100287.75;10278383;28;20073;-60
2023/04/15 22:31:31;;;;;;;2.20;1.23;;;;;;;11.31;69.21;100288.53;10284571;28;20055;-60
2023/04/15 22:36:32;;;;;;;3.33;1.73;;;;;;;11.29;69.40;100289.72;10283344;28;20073;-60
2023/04/15 22:41:34;;;;;;;3.83;1.48;;;;;;;11.40;68.81;100300.03;10267796;28;20062;-61
2023/04/15 22:46:35;;;;;;;3.65;2.60;;;;;;;11.41;69.13;100303.56;10281922;28;20133;-60
2023/04/15 22:51:37;;;;;;;3.90;2.13;;;;;;;11.44;68.96;100312.13;10245889;28;20043;-61
2023/04/15 22:56:38;;;;;;;4.32;2.65;;;;;;;11.43;68.61;100304.22;10270029;28;20145;-61
2023/04/15 23:01:40;;;;;;;4.43;2.60;;;;;;;11.44;68.92;100306.72;10275593;28;20896;-60
2023/04/15 23:06:41;;;;;;;4.53;2.97;;;;;;;11.43;69.09;100317.66;10276330;28;20070;-59
2023/04/15 23:11:43;;;;;;;6.55;3.65;;;;;;;11.39;68.61;100316.38;10275683;28;20094;-61
2023/04/15 23:16:44;;;;;;;5.13;3.38;;;;;;;11.43;68.80;100317.66;10259629;28;20081;-60
2023/04/15 23:21:46;;;;;;;5.20;2.72;;;;;;;11.39;68.84;100319.06;10273900;28;20372;-62
2023/04/15 23:26:47;;;;;;;5.10;2.90;;;;;;;11.44;68.58;100322.88;10276099;28;20145;-61
2023/04/15 23:31:49;;;;;;;5.95;3.05;;;;;;;11.44;68.44;100325.56;10268257;28;20569;-60
2023/04/15 23:36:50;;;;;;;5.25;3.33;;;;;;;11.39;69.00;100327.13;10276484;28;20055;-61
2023/04/15 23:41:52;;;;;;;9.20;4.65;;;;;;;11.40;68.63;100328.81;10272380;28;20083;-61
2023/04/15 23:46:53;;;;;;;5.80;3.55;;;;;;;11.34;68.96;100332.25;10272355;28;20177;-61
2023/04/15 23:51:55;;;;;;;6.65;3.63;;;;;;;11.43;68.32;100336.50;10274953;28;20061;-61
2023/04/15 23:56:57;;;;;;;7.57;4.60;;;;;;;11.45;68.28;100332.66;10274001;28;20070;-62
